createdAt,value
2023-01-13T00:01:25.940Z,10.70
2023-01-13T00:03:52.981Z,11.00
2023-01-13T00:06:21.571Z,10.70
2023-01-13T00:08:49.504Z,11.70
2023-01-13T00:11:16.891Z,11.70
2023-01-13T00:13:44.152Z,11.10
2023-01-13T00:16:12.884Z,10.70
2023-01-13T00:18:40.716Z,12.10
2023-01-13T00:21:15.423Z,12.10
2023-01-13T00:23:42.580Z,12.20
2023-01-13T00:26:14.750Z,12.10
2023-01-13T00:28:41.604Z,11.10
2023-01-13T00:31:10.060Z,11.30
2023-01-13T00:33:40.531Z,11.00
2023-01-13T00:36:08.368Z,11.90
2023-01-13T00:38:35.331Z,10.80
2023-01-13T00:41:07.081Z,10.70
2023-01-13T00:43:35.007Z,11.90
2023-01-13T00:46:02.528Z,11.80
2023-01-13T00:48:30.573Z,12.50
2023-01-13T00:51:02.539Z,11.90
2023-01-13T00:53:32.170Z,12.20
2023-01-13T00:56:01.659Z,13.40
2023-01-13T00:58:30.963Z,11.60
2023-01-13T01:01:09.234Z,11.60
2023-01-13T01:03:36.377Z,13.50
2023-01-13T01:06:07.776Z,12.90
2023-01-13T01:08:35.275Z,12.60
2023-01-13T01:11:03.931Z,14.40
2023-01-13T01:13:31.079Z,13.10
2023-01-13T01:15:58.609Z,13.40
2023-01-13T01:18:25.992Z,13.70
2023-01-13T01:20:53.137Z,12.30
2023-01-13T01:23:19.982Z,13.70
2023-01-13T01:25:49.492Z,13.20
2023-01-13T01:28:18.994Z,13.50
2023-01-13T01:30:46.277Z,14.00
2023-01-13T01:33:13.091Z,14.20
2023-01-13T01:35:40.871Z,13.30
2023-01-13T01:38:07.809Z,15.20
2023-01-13T01:40:35.165Z,13.90
2023-01-13T01:43:20.437Z,13.00
2023-01-13T01:45:47.513Z,12.10
2023-01-13T01:48:14.445Z,12.10
2023-01-13T01:50:41.284Z,12.70
2023-01-13T01:53:15.605Z,12.00
2023-01-13T01:55:42.522Z,11.80
2023-01-13T01:58:17.689Z,12.50
2023-01-13T02:00:44.774Z,11.90
2023-01-13T02:03:11.678Z,12.20
2023-01-13T02:05:39.090Z,12.90
2023-01-13T02:08:08.643Z,12.50
2023-01-13T02:10:36.713Z,13.10
2023-01-13T02:13:05.398Z,12.90
2023-01-13T02:15:50.270Z,12.70
2023-01-13T02:18:20.493Z,11.30
2023-01-13T02:20:56.647Z,11.20
2023-01-13T02:24:07.425Z,11.40
2023-01-13T02:26:50.553Z,12.00
2023-01-13T02:30:17.914Z,10.30
2023-01-13T02:32:50.501Z,10.00
2023-01-13T02:35:29.628Z,10.00
2023-01-13T02:37:56.471Z,9.80
2023-01-13T02:40:24.850Z,11.90
2023-01-13T02:43:31.532Z,10.00
2023-01-13T02:46:04.381Z,9.20
2023-01-13T02:48:31.774Z,9.80
2023-01-13T02:51:00.974Z,9.60
2023-01-13T02:54:07.138Z,10.60
2023-01-13T02:56:36.904Z,10.50
2023-01-13T02:59:04.204Z,10.30
2023-01-13T03:01:30.948Z,10.40
2023-01-13T03:03:57.834Z,10.50
2023-01-13T03:06:57.293Z,11.60
2023-01-13T03:09:38.200Z,12.70
2023-01-13T03:12:20.499Z,13.00
2023-01-13T03:14:55.011Z,13.50
2023-01-13T03:17:29.638Z,13.20
2023-01-13T03:20:20.647Z,13.70
2023-01-13T03:22:52.533Z,14.00
2023-01-13T03:25:25.517Z,13.80
2023-01-13T03:27:54.619Z,13.90
2023-01-13T03:30:26.487Z,13.80
2023-01-13T03:32:56.491Z,14.50
2023-01-13T03:35:30.517Z,15.50
2023-01-13T03:38:01.971Z,15.10
2023-01-13T03:40:34.712Z,14.90
2023-01-13T03:43:26.846Z,16.50
2023-01-13T03:45:56.132Z,16.40
2023-01-13T03:48:22.810Z,15.40
2023-01-13T03:50:51.101Z,16.50
2023-01-13T03:53:23.812Z,15.40
2023-01-13T03:55:52.833Z,15.90
2023-01-13T03:58:28.614Z,16.00
2023-01-13T04:01:12.435Z,15.90
2023-01-13T04:06:41.701Z,13.30
2023-01-13T04:09:15.490Z,13.90
2023-01-13T04:11:43.856Z,16.00
2023-01-13T04:14:11.018Z,14.70
2023-01-13T04:16:38.359Z,15.20
2023-01-13T04:19:05.996Z,14.90
2023-01-13T04:21:32.769Z,14.00
2023-01-13T04:23:59.602Z,14.30
2023-01-13T04:26:27.116Z,15.70
2023-01-13T04:28:54.945Z,14.90
2023-01-13T04:31:21.776Z,15.10
2023-01-13T04:33:48.702Z,15.70
2023-01-13T04:36:15.681Z,14.70
2023-01-13T04:38:42.372Z,14.60
2023-01-13T04:41:09.253Z,16.60
2023-01-13T04:43:36.374Z,16.90
2023-01-13T04:46:03.176Z,15.30
2023-01-13T04:48:30.418Z,15.70
2023-01-13T04:50:57.077Z,14.50
2023-01-13T04:53:23.885Z,16.00
2023-01-13T04:55:51.655Z,16.90
2023-01-13T04:58:18.511Z,15.50
2023-01-13T05:00:45.167Z,15.30
2023-01-13T05:03:11.914Z,15.10
2023-01-13T05:05:39.040Z,15.40
2023-01-13T05:08:08.485Z,15.10
2023-01-13T05:10:36.331Z,16.50
2023-01-13T05:13:23.657Z,14.20
2023-01-13T05:16:11.333Z,15.90
2023-01-13T05:18:39.795Z,16.30
2023-01-13T05:21:26.377Z,15.00
2023-01-13T05:24:11.574Z,15.40
2023-01-13T05:26:38.469Z,14.40
2023-01-13T05:29:05.152Z,14.10
2023-01-13T05:31:32.000Z,14.70
2023-01-13T05:33:58.747Z,14.50
2023-01-13T05:36:25.397Z,13.50
2023-01-13T05:38:52.896Z,14.50
2023-01-13T05:41:38.229Z,14.40
2023-01-13T05:44:04.937Z,13.50
2023-01-13T05:46:33.444Z,15.10
2023-01-13T05:49:01.072Z,13.60
2023-01-13T05:51:27.667Z,14.60
2023-01-13T05:53:54.363Z,13.90
2023-01-13T05:56:21.585Z,13.20
2023-01-13T05:58:48.187Z,14.50
2023-01-13T06:01:15.311Z,14.30
2023-01-13T06:03:42.224Z,14.00
2023-01-13T06:06:09.230Z,14.50
2023-01-13T06:08:40.112Z,14.20
2023-01-13T06:11:07.388Z,13.60
2023-01-13T06:13:35.544Z,14.80
2023-01-13T06:16:02.856Z,14.80
2023-01-13T06:18:29.963Z,13.50
2023-01-13T06:20:56.715Z,14.50
2023-01-13T06:23:23.708Z,14.80
2023-01-13T06:26:09.468Z,12.80
2023-01-13T06:28:36.279Z,13.50
2023-01-13T06:31:04.603Z,14.00
2023-01-13T06:33:40.563Z,15.00
2023-01-13T06:36:11.794Z,14.70
2023-01-13T06:38:40.226Z,14.60
2023-01-13T06:41:08.563Z,15.00
2023-01-13T06:43:35.437Z,14.90
2023-01-13T06:46:02.550Z,14.50
2023-01-13T06:48:32.515Z,14.80
2023-01-13T06:50:59.209Z,15.60
2023-01-13T06:53:26.175Z,15.50
2023-01-13T06:55:52.864Z,15.00
2023-01-13T06:58:19.482Z,16.60
2023-01-13T07:00:50.617Z,15.50
2023-01-13T07:03:17.632Z,17.30
2023-01-13T07:05:51.117Z,16.30
2023-01-13T07:08:18.333Z,16.70
2023-01-13T07:10:45.054Z,16.60
2023-01-13T07:13:31.051Z,15.90
2023-01-13T07:15:59.345Z,17.80
2023-01-13T07:18:27.758Z,15.70
2023-01-13T07:20:55.845Z,18.10
2023-01-13T07:23:23.378Z,19.10
2023-01-13T07:25:50.211Z,18.50
2023-01-13T07:28:16.909Z,19.40
2023-01-13T07:30:44.007Z,18.30
2023-01-13T07:33:10.796Z,20.10
2023-01-13T07:35:37.455Z,19.30
2023-01-13T07:38:04.585Z,20.10
2023-01-13T07:40:31.481Z,19.90
2023-01-13T07:43:17.465Z,18.10
2023-01-13T07:45:44.330Z,17.20
2023-01-13T07:48:11.155Z,18.60
2023-01-13T07:50:37.947Z,18.30
2023-01-13T07:53:04.876Z,18.50
2023-01-13T07:55:31.533Z,18.40
2023-01-13T07:57:58.147Z,17.30
2023-01-13T08:00:25.679Z,16.20
2023-01-13T08:02:52.583Z,20.20
2023-01-13T08:05:19.484Z,20.20
2023-01-13T08:07:46.833Z,20.40
2023-01-13T08:10:14.286Z,21.50
2023-01-13T08:13:00.119Z,20.50
2023-01-13T08:15:27.159Z,21.40
2023-01-13T08:17:53.900Z,21.70
2023-01-13T08:20:20.467Z,21.20
2023-01-13T08:22:47.348Z,23.20
2023-01-13T08:25:14.112Z,23.60
2023-01-13T08:27:41.035Z,22.70
2023-01-13T08:30:10.889Z,22.60
2023-01-13T12:33:06.482Z,17.70
2023-01-13T12:35:39.522Z,14.70
2023-01-13T12:38:22.524Z,17.10
2023-01-13T12:40:55.001Z,16.80
2023-01-13T12:43:41.841Z,17.10
2023-01-13T12:46:28.768Z,16.70
2023-01-13T12:48:58.762Z,16.40
2023-01-13T12:51:33.431Z,16.20
2023-01-13T12:54:20.483Z,16.10
2023-01-13T12:56:47.187Z,15.60
2023-01-13T12:59:18.280Z,15.40
2023-01-13T13:01:46.572Z,14.80
2023-01-13T13:04:16.673Z,16.00
2023-01-13T13:06:45.479Z,17.40
2023-01-13T13:09:19.509Z,16.60
2023-01-13T13:12:02.617Z,16.30
2023-01-13T13:14:49.700Z,16.70
2023-01-13T13:17:24.782Z,15.80
2023-01-13T13:19:51.649Z,15.80
2023-01-13T13:22:20.435Z,16.50
2023-01-13T13:24:56.901Z,15.20
2023-01-13T13:27:46.993Z,16.10
2023-01-13T13:30:25.077Z,15.80
2023-01-13T13:33:24.689Z,15.90
2023-01-13T13:36:07.604Z,14.70
2023-01-13T13:39:21.762Z,16.00
2023-01-13T13:42:09.104Z,15.70
2023-01-13T13:44:58.396Z,17.20
2023-01-13T13:47:25.092Z,17.40
2023-01-13T13:49:53.561Z,15.70
2023-01-13T13:52:35.538Z,16.40
2023-01-13T13:55:20.314Z,15.40
2023-01-13T13:57:51.594Z,15.30
2023-01-13T14:00:20.008Z,15.10
2023-01-13T14:02:55.536Z,15.50
2023-01-13T14:05:23.655Z,16.20
2023-01-13T14:07:59.825Z,15.00
2023-01-13T14:10:34.220Z,15.60
2023-01-13T14:13:03.314Z,16.20
2023-01-13T14:15:32.622Z,16.00
2023-01-13T14:18:01.628Z,15.60
2023-01-13T14:20:28.750Z,16.90
2023-01-13T14:23:00.763Z,15.10
2023-01-13T14:25:39.703Z,15.10
2023-01-13T14:28:12.579Z,14.20
2023-01-13T14:30:39.362Z,14.70
2023-01-13T14:33:11.945Z,15.70
2023-01-13T14:35:38.676Z,14.70
2023-01-13T14:38:05.414Z,16.10
2023-01-13T14:40:32.805Z,14.80
2023-01-13T14:42:59.814Z,15.20
2023-01-13T14:45:26.836Z,15.50
2023-01-13T14:47:53.919Z,16.20
2023-01-13T14:50:28.931Z,13.40
2023-01-13T14:52:56.555Z,14.60
2023-01-13T14:55:29.691Z,14.10
2023-01-13T14:58:21.920Z,15.80
2023-01-13T15:00:50.376Z,14.50
2023-01-13T15:03:19.114Z,15.00
2023-01-13T15:05:47.375Z,15.30
2023-01-13T15:08:14.070Z,16.20
2023-01-13T15:10:47.920Z,17.20
2023-01-13T15:13:26.170Z,15.40
2023-01-13T15:15:55.328Z,16.00
2023-01-13T15:18:22.400Z,15.40
2023-01-13T15:20:52.011Z,15.70
2023-01-13T15:23:19.181Z,16.70
2023-01-13T15:25:46.407Z,16.30
2023-01-13T15:28:21.502Z,17.20
2023-01-13T15:30:49.489Z,17.20
2023-01-13T15:33:17.383Z,16.60
2023-01-13T15:35:46.892Z,15.90
2023-01-13T15:38:18.734Z,17.00
2023-01-13T15:40:48.534Z,16.10
2023-01-13T15:43:36.019Z,16.70
2023-01-13T15:46:22.671Z,16.00
2023-01-13T15:48:53.079Z,16.00
2023-01-13T15:51:21.856Z,15.40
2023-01-13T15:53:49.785Z,15.50
2023-01-13T15:56:23.187Z,18.00
2023-01-13T21:15:34.486Z,20.70
2023-01-13T21:18:21.717Z,19.30
2023-01-13T21:20:50.290Z,19.70
2023-01-13T21:23:17.343Z,18.60
2023-01-13T21:25:44.300Z,18.70
2023-01-13T21:28:13.076Z,19.00
2023-01-13T21:30:39.956Z,19.70
2023-01-13T21:33:07.208Z,19.60
2023-01-13T21:35:37.314Z,20.40
2023-01-13T21:38:05.637Z,20.60
2023-01-13T21:40:32.842Z,19.90
2023-01-13T21:43:18.690Z,19.70
2023-01-13T21:46:06.398Z,19.90
2023-01-13T21:48:34.021Z,21.70
2023-01-13T21:51:00.920Z,21.80
2023-01-13T21:53:27.777Z,20.70
2023-01-13T21:55:54.555Z,21.20
2023-01-13T21:58:21.399Z,21.00
2023-01-13T22:00:49.547Z,21.50
2023-01-13T22:03:18.112Z,22.90
2023-01-13T22:05:45.812Z,20.60
2023-01-13T22:08:13.086Z,19.20
2023-01-13T22:10:59.879Z,21.80
2023-01-13T22:13:47.515Z,21.00
2023-01-13T22:16:15.350Z,19.70
2023-01-13T22:18:42.555Z,21.60
2023-01-13T22:21:10.340Z,21.00
2023-01-13T22:23:37.113Z,19.50
2023-01-13T22:26:05.275Z,19.00
2023-01-13T22:28:39.479Z,19.80
2023-01-13T22:31:10.524Z,19.90
2023-01-13T22:33:41.657Z,19.40
2023-01-13T22:36:09.148Z,19.60
2023-01-13T22:38:35.972Z,19.40
2023-01-13T22:41:04.231Z,20.70
2023-01-13T22:43:31.376Z,18.30
2023-01-13T22:46:11.489Z,20.20
2023-01-13T22:48:40.616Z,21.00
2023-01-13T22:51:15.243Z,18.70
2023-01-13T22:53:42.400Z,20.30
2023-01-13T22:56:19.253Z,20.80
2023-01-13T22:58:46.217Z,19.50
2023-01-13T23:01:14.671Z,19.70
2023-01-13T23:03:41.908Z,20.70
2023-01-13T23:06:09.310Z,19.80
2023-01-13T23:08:36.855Z,18.70
2023-01-13T23:11:05.311Z,18.90
2023-01-13T23:13:33.988Z,19.10
2023-01-13T23:16:05.176Z,19.50
2023-01-13T23:18:32.428Z,17.70
2023-01-13T23:21:06.762Z,17.60
2023-01-13T23:23:33.798Z,19.20
2023-01-13T23:26:00.953Z,17.20
2023-01-13T23:28:27.703Z,18.40
2023-01-13T23:30:54.703Z,16.50
2023-01-13T23:33:21.731Z,17.90
2023-01-13T23:35:56.001Z,17.30
2023-01-13T23:38:22.833Z,16.50
2023-01-13T23:40:49.482Z,16.70
2023-01-13T23:43:16.234Z,16.70
2023-01-13T23:45:43.358Z,18.50
2023-01-13T23:48:10.956Z,19.30
2023-01-13T23:50:38.131Z,17.40
2023-01-13T23:53:04.830Z,16.90
2023-01-13T23:55:31.631Z,18.80
2023-01-13T23:57:58.522Z,16.60
